createdAt,value
2018-09-18T00:01:05.496Z,6.90
2018-09-18T00:03:35.513Z,7.37
2018-09-18T00:06:04.913Z,7.03
2018-09-18T00:08:34.067Z,7.90
2018-09-18T00:11:03.395Z,7.20
2018-09-18T00:13:32.674Z,7.23
2018-09-18T00:16:01.905Z,7.40
2018-09-18T00:18:32.092Z,8.00
2018-09-18T00:21:01.290Z,7.63
2018-09-18T00:23:30.237Z,7.63
2018-09-18T00:25:59.611Z,7.20
2018-09-18T00:28:28.745Z,8.27
2018-09-18T00:30:57.857Z,7.90
2018-09-18T00:33:27.831Z,7.87
2018-09-18T00:35:57.040Z,6.87
2018-09-18T00:38:26.367Z,8.23
2018-09-18T00:40:55.481Z,8.10
2018-09-18T00:43:24.572Z,8.00
2018-09-18T00:45:54.540Z,8.20
2018-09-18T00:48:23.797Z,8.20
2018-09-18T00:50:52.803Z,8.13
2018-09-18T00:53:24.762Z,7.93
2018-09-18T00:55:53.939Z,8.80
2018-09-18T00:58:22.948Z,7.50
2018-09-18T01:00:51.822Z,7.90
2018-09-18T01:03:20.895Z,7.87
2018-09-18T01:05:50.117Z,8.03
2018-09-18T01:08:19.391Z,8.20
2018-09-18T01:10:48.606Z,7.70
2018-09-18T01:13:17.718Z,7.60
2018-09-18T01:15:46.823Z,7.40
2018-09-18T01:18:16.079Z,8.20
2018-09-18T01:20:45.183Z,8.17
2018-09-18T01:23:14.216Z,7.93
2018-09-18T01:25:43.605Z,8.30
2018-09-18T01:28:12.702Z,7.70
2018-09-18T01:30:41.730Z,8.77
2018-09-18T01:33:11.454Z,8.60
2018-09-18T01:35:40.719Z,7.73
2018-09-18T01:38:10.689Z,8.10
2018-09-18T01:40:40.242Z,7.70
2018-09-18T01:43:10.233Z,8.50
2018-09-18T01:45:39.415Z,8.17
2018-09-18T01:48:08.417Z,8.03
2018-09-18T01:50:37.685Z,8.10
2018-09-18T01:53:07.086Z,7.80
2018-09-18T01:55:36.112Z,8.27
2018-09-18T01:58:05.156Z,8.07
2018-09-18T02:00:34.191Z,8.13
2018-09-18T02:03:04.320Z,8.30
2018-09-18T02:05:33.404Z,8.43
2018-09-18T02:08:02.733Z,7.63
2018-09-18T02:10:31.907Z,8.80
2018-09-18T02:13:01.205Z,8.60
2018-09-18T02:15:30.395Z,8.67
2018-09-18T02:17:59.519Z,9.27
2018-09-18T02:20:28.616Z,8.30
2018-09-18T02:22:57.679Z,8.57
2018-09-18T02:25:26.752Z,7.80
2018-09-18T02:27:56.087Z,8.30
2018-09-18T02:30:25.077Z,8.20
2018-09-18T02:32:54.434Z,8.03
2018-09-18T02:35:23.997Z,8.17
2018-09-18T02:37:53.203Z,8.90
2018-09-18T02:40:22.469Z,8.17
2018-09-18T02:42:51.662Z,9.07
2018-09-18T02:45:21.238Z,7.97
2018-09-18T02:47:50.851Z,8.27
2018-09-18T02:50:20.431Z,7.70
2018-09-18T02:52:50.149Z,7.97
2018-09-18T02:55:19.242Z,8.73
2018-09-18T02:57:48.339Z,7.60
2018-09-18T03:00:17.432Z,8.00
2018-09-18T03:02:46.734Z,9.00
2018-09-18T03:05:15.740Z,8.70
2018-09-18T03:07:45.118Z,8.67
2018-09-18T03:10:14.459Z,8.00
2018-09-18T03:12:43.833Z,8.80
2018-09-18T03:15:12.960Z,8.40
2018-09-18T03:17:41.911Z,8.23
2018-09-18T03:20:10.785Z,7.70
2018-09-18T03:22:40.156Z,8.40
2018-09-18T03:25:09.337Z,8.13
2018-09-18T03:27:39.182Z,9.03
2018-09-18T03:30:08.403Z,8.37
2018-09-18T03:32:37.558Z,9.23
2018-09-18T03:35:06.707Z,8.17
2018-09-18T03:37:35.910Z,8.13
2018-09-18T03:40:05.660Z,8.77
2018-09-18T03:42:34.720Z,8.63
2018-09-18T03:45:04.185Z,8.67
2018-09-18T03:47:33.324Z,8.50
2018-09-18T03:50:02.454Z,8.80
2018-09-18T03:52:31.416Z,8.67
2018-09-18T03:55:07.747Z,8.60
2018-09-18T03:57:37.522Z,9.50
2018-09-18T04:00:06.740Z,8.30
2018-09-18T04:02:36.191Z,8.90
2018-09-18T04:05:05.072Z,8.93
2018-09-18T04:07:34.110Z,8.23
2018-09-18T04:10:03.199Z,8.40
2018-09-18T04:12:32.139Z,8.10
2018-09-18T04:15:01.461Z,8.43
2018-09-18T04:17:30.919Z,9.07
2018-09-18T04:20:00.238Z,9.00
2018-09-18T04:22:29.398Z,9.60
2018-09-18T04:24:58.533Z,8.57
2018-09-18T04:27:27.656Z,8.60
2018-09-18T04:29:56.820Z,9.07
2018-09-18T04:32:26.113Z,9.17
2018-09-18T04:34:55.219Z,9.20
2018-09-18T04:37:24.371Z,8.27
2018-09-18T04:39:54.097Z,8.50
2018-09-18T04:42:23.122Z,8.90
2018-09-18T04:44:52.566Z,8.80
2018-09-18T04:47:21.699Z,8.37
2018-09-18T04:49:50.830Z,9.57
2018-09-18T04:52:19.980Z,8.57
2018-09-18T04:54:49.278Z,8.80
2018-09-18T04:57:18.650Z,8.40
2018-09-18T04:59:47.752Z,8.20
2018-09-18T05:02:16.827Z,8.37
2018-09-18T05:04:46.629Z,8.70
2018-09-18T05:07:15.653Z,8.60
2018-09-18T05:09:45.218Z,8.17
2018-09-18T05:12:14.591Z,8.10
2018-09-18T05:14:43.880Z,8.07
2018-09-18T05:17:13.452Z,8.63
2018-09-18T05:19:42.593Z,8.90
2018-09-18T05:22:11.591Z,8.50
2018-09-18T05:24:40.601Z,8.20
2018-09-18T05:27:10.013Z,7.70
2018-09-18T05:29:39.213Z,22.93
2018-09-18T05:32:08.372Z,11.00
2018-09-18T05:34:37.802Z,11.30
2018-09-18T05:37:07.016Z,11.30
2018-09-18T05:39:36.000Z,9.17
2018-09-18T05:42:10.205Z,8.47
2018-09-18T05:44:39.557Z,7.40
2018-09-18T05:47:09.709Z,8.43
2018-09-18T05:49:38.959Z,8.10
2018-09-18T05:52:08.343Z,8.90
2018-09-18T05:54:37.493Z,9.13
2018-09-18T05:57:07.690Z,8.07
2018-09-18T05:59:36.725Z,8.27
2018-09-18T06:02:06.223Z,8.13
2018-09-18T06:04:35.315Z,8.97
2018-09-18T06:07:04.420Z,8.30
2018-09-18T06:09:33.694Z,8.20
2018-09-18T06:12:03.047Z,8.00
2018-09-18T06:14:32.182Z,8.33
2018-09-18T06:17:01.480Z,8.20
2018-09-18T06:19:30.933Z,9.03
2018-09-18T06:22:00.051Z,8.13
2018-09-18T06:24:29.330Z,7.70
2018-09-18T06:26:59.199Z,9.60
2018-09-18T06:29:31.207Z,8.50
2018-09-18T06:32:00.624Z,8.90
2018-09-18T06:34:29.786Z,8.30
2018-09-18T06:36:58.822Z,8.33
2018-09-18T06:39:28.043Z,8.40
2018-09-18T06:41:56.990Z,9.23
2018-09-18T06:44:25.979Z,8.93
2018-09-18T06:46:55.008Z,8.20
2018-09-18T06:49:24.907Z,8.50
2018-09-18T06:51:53.973Z,8.83
2018-09-18T06:54:23.102Z,9.10
2018-09-18T06:56:52.803Z,8.30
2018-09-18T06:59:22.025Z,8.53
2018-09-18T07:01:51.425Z,8.80
2018-09-18T07:04:20.593Z,8.00
2018-09-18T07:06:49.599Z,9.10
2018-09-18T07:09:18.910Z,8.30
2018-09-18T07:11:48.200Z,8.97
2018-09-18T07:14:17.421Z,8.77
2018-09-18T07:16:47.267Z,10.20
2018-09-18T07:19:17.253Z,8.77
2018-09-18T07:21:46.812Z,8.20
2018-09-18T07:24:16.016Z,9.00
2018-09-18T07:26:45.591Z,8.20
2018-09-18T07:29:14.825Z,7.53
2018-09-18T07:31:44.071Z,7.23
2018-09-18T07:34:13.510Z,8.63
2018-09-18T07:36:43.082Z,7.30
2018-09-18T07:39:12.842Z,8.80
2018-09-18T07:41:42.695Z,8.40
2018-09-18T07:44:11.962Z,8.00
2018-09-18T07:46:41.560Z,7.57
2018-09-18T07:49:10.535Z,7.80
2018-09-18T07:51:39.508Z,7.27
2018-09-18T07:54:08.788Z,7.57
2018-09-18T07:56:37.838Z,7.97
2018-09-18T07:59:07.310Z,8.23
2018-09-18T08:01:36.659Z,8.37
2018-09-18T08:04:05.949Z,8.60
2018-09-18T08:06:35.074Z,7.37
2018-09-18T08:09:05.812Z,7.13
2018-09-18T08:11:34.762Z,7.57
2018-09-18T08:14:03.926Z,8.20
2018-09-18T08:16:33.262Z,8.10
2018-09-18T08:19:02.582Z,8.73
2018-09-18T08:21:31.722Z,7.00
2018-09-18T08:24:01.333Z,9.30
2018-09-18T08:26:30.565Z,6.57
2018-09-18T08:29:00.178Z,7.00
2018-09-18T08:31:29.513Z,7.30
2018-09-18T08:33:58.571Z,7.00
2018-09-18T08:36:27.822Z,7.40
2018-09-18T08:38:57.630Z,7.20
2018-09-18T08:41:27.227Z,6.80
2018-09-18T08:43:56.379Z,7.37
2018-09-18T08:46:25.726Z,6.20
2018-09-18T08:48:55.750Z,6.50
2018-09-18T08:51:25.305Z,6.47
2018-09-18T08:53:54.677Z,5.87
2018-09-18T08:56:23.778Z,6.43
2018-09-18T08:58:52.735Z,5.90
2018-09-18T09:01:22.175Z,5.90
2018-09-18T09:03:51.368Z,7.17
2018-09-18T09:06:20.613Z,5.90
2018-09-18T09:08:50.458Z,6.40
2018-09-18T09:11:25.904Z,5.80
2018-09-18T09:13:55.401Z,6.30
2018-09-18T09:16:24.563Z,6.77
2018-09-18T09:18:53.822Z,5.97
2018-09-18T09:21:23.144Z,6.60
2018-09-18T09:23:52.446Z,6.20
2018-09-18T09:26:21.665Z,5.70
2018-09-18T09:28:50.876Z,5.50
2018-09-18T09:31:20.856Z,5.87
2018-09-18T09:33:50.196Z,5.60
2018-09-18T09:36:19.823Z,5.50
2018-09-18T09:38:49.049Z,6.53
2018-09-18T09:41:18.324Z,5.43
2018-09-18T09:43:47.574Z,6.27
2018-09-18T09:46:16.863Z,5.80
2018-09-18T09:48:45.944Z,5.30
2018-09-18T09:51:15.637Z,5.33
2018-09-18T09:53:44.920Z,7.50
2018-09-18T09:56:14.800Z,5.80
2018-09-18T09:58:43.895Z,5.77
2018-09-18T10:01:18.026Z,5.40
2018-09-18T10:03:47.499Z,5.10
2018-09-18T10:06:16.573Z,5.70
2018-09-18T10:08:45.828Z,6.80
2018-09-18T10:11:15.387Z,5.07
2018-09-18T10:13:44.507Z,5.93
2018-09-18T10:16:13.725Z,6.27
2018-09-18T10:18:43.742Z,5.83
2018-09-18T10:21:12.856Z,5.83
2018-09-18T10:23:42.003Z,5.90
2018-09-18T10:26:11.775Z,5.90
2018-09-18T10:28:41.061Z,5.30
2018-09-18T10:31:10.207Z,5.77
2018-09-18T10:33:39.586Z,5.60
2018-09-18T10:36:08.924Z,5.87
2018-09-18T10:38:38.111Z,5.10
2018-09-18T10:41:07.442Z,5.37
2018-09-18T10:43:36.638Z,5.10
2018-09-18T10:46:05.908Z,5.60
2018-09-18T10:48:40.103Z,5.30
2018-09-18T10:51:09.075Z,5.23
2018-09-18T10:53:39.514Z,4.67
2018-09-18T10:56:08.771Z,5.13
2018-09-18T10:58:37.965Z,4.80
2018-09-18T11:01:07.353Z,4.87
2018-09-18T11:03:36.728Z,4.33
2018-09-18T11:06:06.712Z,5.30
2018-09-18T11:08:36.415Z,4.90
2018-09-18T11:11:06.762Z,4.50
2018-09-18T11:13:36.228Z,4.30
2018-09-18T11:16:05.737Z,4.30
2018-09-18T11:18:34.954Z,4.63
2018-09-18T11:21:04.117Z,4.00
2018-09-18T11:23:33.452Z,3.93
2018-09-18T11:26:02.922Z,4.40
2018-09-18T11:28:31.832Z,4.70
2018-09-18T11:31:01.375Z,4.47
2018-09-18T11:33:30.506Z,5.10
2018-09-18T11:35:59.640Z,4.53
2018-09-18T11:38:28.799Z,4.13
2018-09-18T11:40:58.193Z,4.07
2018-09-18T11:43:27.407Z,4.60
2018-09-18T11:45:57.232Z,6.77
2018-09-18T11:48:26.203Z,5.73
2018-09-18T11:50:55.217Z,4.20
2018-09-18T11:53:24.332Z,4.63
2018-09-18T11:55:53.739Z,4.47
2018-09-18T11:58:22.786Z,4.20
2018-09-18T12:00:52.086Z,4.33
2018-09-18T12:03:21.231Z,4.47
2018-09-18T12:05:50.631Z,4.80
2018-09-18T12:08:20.022Z,4.93
2018-09-18T12:10:49.370Z,4.67
2018-09-18T12:13:18.448Z,4.00
2018-09-18T12:15:47.634Z,4.70
2018-09-18T12:18:16.880Z,4.70
2018-09-18T12:20:46.666Z,5.07
2018-09-18T12:23:16.493Z,4.53
2018-09-18T12:25:46.055Z,4.80
2018-09-18T12:28:15.407Z,5.50
2018-09-18T12:30:44.567Z,5.90
2018-09-18T12:33:13.682Z,4.00
2018-09-18T12:35:42.843Z,4.60
2018-09-18T12:38:12.226Z,4.30
2018-09-18T12:40:41.376Z,4.70
2018-09-18T12:43:10.520Z,4.80
2018-09-18T12:45:39.823Z,4.90
2018-09-18T12:48:08.989Z,4.70
2018-09-18T12:50:38.106Z,4.73
2018-09-18T12:53:07.590Z,4.73
2018-09-18T12:55:36.681Z,4.10
2018-09-18T12:58:06.033Z,4.73
2018-09-18T13:00:35.340Z,4.67
2018-09-18T13:03:04.620Z,4.60
2018-09-18T13:05:33.934Z,5.33
2018-09-18T13:08:03.176Z,4.43
2018-09-18T13:10:32.686Z,4.30
2018-09-18T13:13:01.781Z,4.67
2018-09-18T13:15:31.261Z,4.83
2018-09-18T13:18:00.458Z,4.20
2018-09-18T13:20:29.660Z,4.90
2018-09-18T13:22:58.617Z,4.57
2018-09-18T13:25:27.879Z,4.60
2018-09-18T13:27:57.293Z,5.57
2018-09-18T13:30:26.614Z,4.53
2018-09-18T13:32:55.898Z,4.83
2018-09-18T13:35:25.164Z,4.70
2018-09-18T13:37:54.419Z,3.70
2018-09-18T13:40:23.732Z,4.83
2018-09-18T13:42:52.899Z,5.47
2018-09-18T13:45:22.055Z,5.00
2018-09-18T13:47:51.263Z,4.73
2018-09-18T13:50:20.443Z,4.77
2018-09-18T13:52:49.854Z,5.00
2018-09-18T13:55:18.984Z,5.00
2018-09-18T13:57:49.137Z,4.03
2018-09-18T14:00:18.109Z,4.20
2018-09-18T14:02:47.956Z,4.63
2018-09-18T14:05:17.152Z,5.13
2018-09-18T14:07:46.143Z,8.13
2018-09-18T14:10:16.719Z,4.60
2018-09-18T14:12:45.769Z,4.70
2018-09-18T14:15:14.922Z,5.20
2018-09-18T14:17:44.130Z,5.23
2018-09-18T14:20:13.112Z,4.77
2018-09-18T14:22:42.777Z,5.13
2018-09-18T14:25:11.743Z,4.10
2018-09-18T14:27:40.980Z,4.40
2018-09-18T14:30:10.097Z,4.87
2018-09-18T14:32:39.501Z,4.43
2018-09-18T14:35:08.678Z,4.70
2018-09-18T14:37:37.740Z,5.23
2018-09-18T14:40:07.206Z,4.60
2018-09-18T14:42:36.299Z,4.93
2018-09-18T14:45:05.866Z,4.53
2018-09-18T14:47:35.464Z,4.53
2018-09-18T14:50:05.204Z,4.70
2018-09-18T14:52:34.258Z,4.27
2018-09-18T14:55:03.349Z,4.27
2018-09-18T14:57:32.450Z,4.27
2018-09-18T15:00:01.998Z,4.33
2018-09-18T15:02:31.262Z,4.43
2018-09-18T15:05:00.533Z,4.43
2018-09-18T15:07:29.874Z,4.43
2018-09-18T15:09:58.851Z,4.53
2018-09-18T15:12:27.955Z,4.27
2018-09-18T15:14:58.404Z,4.80
2018-09-18T15:17:27.475Z,4.00
2018-09-18T15:19:57.369Z,4.57
2018-09-18T15:22:26.292Z,4.43
2018-09-18T15:24:55.593Z,4.70
2018-09-18T15:27:24.772Z,4.63
2018-09-18T15:29:54.152Z,4.53
2018-09-18T15:32:24.137Z,4.70
2018-09-18T15:34:54.052Z,5.23
2018-09-18T15:37:23.462Z,4.10
2018-09-18T15:39:52.547Z,4.50
2018-09-18T15:42:22.573Z,4.10
2018-09-18T15:44:51.661Z,5.07
2018-09-18T15:47:20.615Z,4.90
2018-09-18T15:49:50.007Z,4.27
2018-09-18T15:52:19.244Z,4.80
2018-09-18T15:54:48.320Z,4.50
2018-09-18T15:57:17.439Z,4.90
2018-09-18T15:59:46.608Z,4.80
2018-09-18T16:02:15.684Z,5.43
2018-09-18T16:04:44.749Z,4.27
2018-09-18T16:07:14.131Z,4.27
2018-09-18T16:09:43.217Z,4.47
2018-09-18T16:12:12.444Z,4.27
2018-09-18T16:14:41.770Z,4.80
2018-09-18T16:17:11.230Z,5.40
2018-09-18T16:19:40.638Z,3.90
2018-09-18T16:22:09.641Z,4.70
2018-09-18T16:24:38.562Z,5.10
2018-09-18T16:27:07.694Z,4.70
2018-09-18T16:29:36.910Z,4.73
2018-09-18T16:32:06.231Z,4.83
2018-09-18T16:34:35.200Z,4.53
2018-09-18T16:37:04.188Z,5.23
2018-09-18T16:39:33.191Z,4.83
2018-09-18T16:42:02.188Z,5.40
2018-09-18T16:44:31.440Z,5.20
2018-09-18T16:47:00.594Z,4.70
2018-09-18T16:49:29.959Z,4.60
2018-09-18T16:51:59.415Z,5.63
2018-09-18T16:54:28.670Z,4.50
2018-09-18T16:56:57.719Z,5.17
2018-09-18T16:59:27.013Z,4.60
2018-09-18T17:01:56.618Z,4.93
2018-09-18T17:04:26.080Z,5.00
2018-09-18T17:06:55.487Z,4.57
2018-09-18T17:09:24.573Z,4.30
2018-09-18T17:11:53.548Z,4.67
2018-09-18T17:14:23.119Z,4.57
2018-09-18T17:16:52.338Z,4.90
2018-09-18T17:19:21.497Z,4.30
2018-09-18T17:21:50.871Z,4.30
2018-09-18T17:24:20.349Z,4.70
2018-09-18T17:26:49.940Z,5.20
2018-09-18T17:29:19.224Z,5.33
2018-09-18T17:31:48.641Z,4.70
2018-09-18T17:34:17.758Z,5.70
2018-09-18T17:36:47.283Z,5.50
2018-09-18T17:39:17.186Z,5.40
2018-09-18T17:41:46.470Z,5.30
2018-09-18T17:44:22.218Z,4.80
2018-09-18T17:46:51.225Z,5.43
2018-09-18T17:49:20.556Z,4.90
2018-09-18T17:51:49.800Z,5.57
2018-09-18T17:54:18.763Z,5.00
2018-09-18T17:56:48.420Z,4.87
2018-09-18T17:59:17.699Z,4.70
2018-09-18T18:01:46.846Z,5.67
2018-09-18T18:04:16.867Z,5.00
2018-09-18T18:06:46.219Z,4.87
2018-09-18T18:09:15.542Z,5.00
2018-09-18T18:11:44.731Z,5.10
2018-09-18T18:14:14.289Z,5.23
2018-09-18T18:16:43.747Z,4.60
2018-09-18T18:19:12.999Z,5.17
2018-09-18T18:21:42.547Z,5.43
2018-09-18T18:24:11.675Z,5.60
2018-09-18T18:26:41.084Z,5.10
2018-09-18T18:29:11.274Z,4.93
2018-09-18T18:31:40.732Z,5.27
2018-09-18T18:34:10.764Z,5.30
2018-09-18T18:36:39.894Z,5.40
2018-09-18T18:39:09.940Z,5.00
2018-09-18T18:41:39.473Z,5.17
2018-09-18T18:44:08.865Z,5.70
2018-09-18T18:46:44.314Z,5.43
2018-09-18T18:49:13.469Z,5.87
2018-09-18T18:51:42.981Z,5.30
2018-09-18T18:54:12.302Z,5.10
2018-09-18T18:56:41.455Z,4.90
2018-09-18T18:59:10.731Z,5.43
2018-09-18T19:01:40.065Z,4.73
2018-09-18T19:04:09.195Z,6.90
2018-09-18T19:06:38.183Z,5.33
2018-09-18T19:09:08.141Z,4.93
2018-09-18T19:11:37.355Z,5.70
2018-09-18T19:14:06.667Z,5.00
2018-09-18T19:16:36.628Z,6.23
2018-09-18T19:19:06.106Z,6.10
2018-09-18T19:21:35.877Z,5.90
2018-09-18T19:24:05.037Z,5.20
2018-09-18T19:26:34.305Z,5.63
2018-09-18T19:29:04.209Z,6.00
2018-09-18T19:31:33.458Z,6.37
2018-09-18T19:34:02.777Z,6.10
2018-09-18T19:36:31.993Z,5.47
2018-09-18T19:39:01.278Z,6.20
2018-09-18T19:41:30.538Z,6.30
2018-09-18T19:44:02.868Z,5.80
2018-09-18T19:46:32.131Z,6.27
2018-09-18T19:49:01.226Z,6.27
2018-09-18T19:51:30.383Z,6.17
2018-09-18T19:53:59.530Z,5.50
2018-09-18T19:56:29.713Z,5.97
2018-09-18T19:58:58.663Z,6.40
2018-09-18T20:01:27.942Z,5.47
2018-09-18T20:03:57.478Z,6.17
2018-09-18T20:06:26.913Z,6.17
2018-09-18T20:08:55.960Z,5.63
2018-09-18T20:11:24.993Z,5.87
2018-09-18T20:13:54.132Z,6.03
2018-09-18T20:16:23.293Z,6.00
2018-09-18T20:18:52.665Z,5.80
2018-09-18T20:21:22.083Z,8.50
2018-09-18T20:23:51.384Z,7.40
2018-09-18T20:26:21.411Z,5.43
2018-09-18T20:28:51.130Z,5.87
2018-09-18T20:31:20.510Z,6.13
2018-09-18T20:33:49.639Z,6.10
2018-09-18T20:36:18.918Z,6.90
2018-09-18T20:38:48.096Z,6.07
2018-09-18T20:41:17.430Z,6.13
2018-09-18T20:43:46.569Z,6.40
2018-09-18T20:46:16.752Z,6.70
2018-09-18T20:48:46.113Z,6.30
2018-09-18T20:51:15.332Z,6.40
2018-09-18T20:53:44.611Z,5.50
2018-09-18T20:56:13.861Z,5.80
2018-09-18T20:58:43.026Z,5.77
2018-09-18T21:01:12.416Z,5.97
2018-09-18T21:03:41.408Z,5.70
2018-09-18T21:06:16.981Z,5.80
2018-09-18T21:08:46.176Z,6.00
2018-09-18T21:11:15.785Z,6.03
2018-09-18T21:13:45.281Z,9.93
2018-09-18T21:16:14.557Z,6.70
2018-09-18T21:18:43.860Z,6.80
2018-09-18T21:21:13.396Z,6.30
2018-09-18T21:23:43.111Z,7.40
2018-09-18T21:26:15.791Z,6.60
2018-09-18T21:28:44.798Z,6.70
2018-09-18T21:31:13.959Z,6.63
2018-09-18T21:33:43.080Z,6.93
2018-09-18T21:36:12.590Z,6.70
2018-09-18T21:38:42.208Z,7.07
2018-09-18T21:41:11.599Z,6.73
2018-09-18T21:43:40.810Z,6.33
2018-09-18T21:46:10.671Z,6.60
2018-09-18T21:48:40.363Z,6.73
2018-09-18T21:51:10.294Z,6.80
2018-09-18T21:53:40.127Z,6.50
2018-09-18T21:56:09.273Z,6.63
2018-09-18T21:58:38.379Z,6.30
2018-09-18T22:01:07.789Z,9.30
2018-09-18T22:03:37.703Z,9.50
2018-09-18T22:06:06.874Z,7.20
2018-09-18T22:08:36.735Z,6.77
2018-09-18T22:11:06.075Z,6.90
2018-09-18T22:13:35.224Z,6.97
2018-09-18T22:16:04.453Z,7.30
2018-09-18T22:18:33.648Z,6.50
2018-09-18T22:21:02.843Z,6.80
2018-09-18T22:23:32.303Z,7.43
2018-09-18T22:26:01.448Z,6.83
2018-09-18T22:28:30.544Z,6.87
2018-09-18T22:30:59.843Z,6.90
2018-09-18T22:33:29.040Z,10.13
2018-09-18T22:35:59.508Z,7.90
2018-09-18T22:38:30.567Z,6.80
2018-09-18T22:40:59.733Z,7.30
2018-09-18T22:43:28.959Z,7.03
2018-09-18T22:45:58.372Z,6.80
2018-09-18T22:48:27.593Z,6.50
2018-09-18T22:50:57.799Z,7.63
2018-09-18T22:53:27.570Z,6.80
2018-09-18T22:55:56.665Z,7.23
2018-09-18T22:58:27.102Z,7.20
2018-09-18T23:00:56.317Z,7.00
2018-09-18T23:03:25.359Z,7.80
2018-09-18T23:05:55.111Z,7.30
2018-09-18T23:08:24.480Z,7.63
2018-09-18T23:10:54.710Z,7.70
2018-09-18T23:13:23.851Z,6.83
2018-09-18T23:15:53.182Z,6.97
2018-09-18T23:18:22.837Z,6.73
2018-09-18T23:20:52.196Z,7.13
2018-09-18T23:23:21.516Z,7.30
2018-09-18T23:25:51.944Z,7.97
2018-09-18T23:28:21.067Z,6.77
2018-09-18T23:30:50.851Z,7.37
2018-09-18T23:33:20.036Z,7.67
2018-09-18T23:35:49.401Z,6.80
2018-09-18T23:38:18.676Z,7.83
2018-09-18T23:40:49.241Z,7.03
2018-09-18T23:43:18.435Z,7.70
2018-09-18T23:45:47.514Z,7.20
2018-09-18T23:48:16.735Z,7.30
2018-09-18T23:50:45.712Z,6.90
2018-09-18T23:53:14.686Z,7.17
2018-09-18T23:55:44.471Z,7.20
2018-09-18T23:58:13.439Z,7.33
